Kaleen Mc Allister — WDB3847 — position and weather

sailwx.info

Track history (hours):
 
Tides and Currents Weather Stations Pressure Air Temp Water Temp Dewpoint Dewpoint Depression Visibility Wind Speed Wind Dir Waves Ship Positions

Kaleen Mc Allister

Owner: MC ALLISTER TOWING & TRANSPORTATION INC, NEW YORK, NY. More information available from US FCC via Universal Licensing System and Coast Guard Vessel Documentation Center.

Last reported at 2016-Jul-26 15:34 UTC. Time now 2016-Jul-26 15:59 UTC.
Position N 39°14' W 076°33'.

Length 31 m; draft 4 m.

Type: Tug. MMSI: 366891960.

Date/timePositionNaut miles runAvg speedWind from/ knotsBaromVisibWave heightAir tempDewpointWater temp
2016-Jul-26 15:34N 39°14' W 076°33'0 0.2
2016-Jul-26 14:34N 39°14' W 076°33'2 2.1
2016-Jul-26 13:33N 39°16' W 076°35'0 0.2
2016-Jul-26 12:34N 39°16' W 076°35'0 0.2
2016-Jul-26 11:33N 39°16' W 076°35'0 0.0
2016-Jul-26 10:34N 39°16' W 076°35'0 0.0
2016-Jul-26 09:34N 39°16' W 076°35'0 0.0
2016-Jul-26 08:34N 39°16' W 076°35'0 0.0
2016-Jul-26 07:34N 39°16' W 076°35'0 0.0
2016-Jul-26 06:33N 39°16' W 076°35'0 0.0
2016-Jul-26 05:33N 39°16' W 076°35'0 0.0
2016-Jul-26 04:33N 39°16' W 076°35'0 0.0
2016-Jul-26 03:33N 39°16' W 076°35'0 0.0
2016-Jul-26 02:34N 39°16' W 076°35'0 0.0
2016-Jul-26 01:33N 39°16' W 076°35'0 0.0
2016-Jul-26 00:34N 39°16' W 076°35'0 0.0
2016-Jul-25 23:34N 39°16' W 076°35'0 0.0
2016-Jul-25 22:34N 39°16' W 076°35'1 1.1
2016-Jul-25 21:33N 39°15' W 076°34'2 1.3
2016-Jul-25 20:25N 39°16' W 076°35'0 0.6
2016-Jul-25 19:33N 39°16' W 076°35'0 0.0
2016-Jul-25 18:33N 39°16' W 076°35'0 0.0
2016-Jul-25 17:34N 39°16' W 076°35'0 0.0
2016-Jul-25 16:33N 39°16' W 076°35'0 0.0
2016-Jul-25 15:33N 39°16' W 076°35'0 0.0
2016-Jul-25 14:33N 39°16' W 076°35'0 0.0
2016-Jul-25 13:34N 39°16' W 076°35'0 0.0
2016-Jul-25 12:33N 39°16' W 076°35'0 0.0
2016-Jul-25 11:34N 39°16' W 076°35'0 0.0
2016-Jul-25 10:33N 39°16' W 076°35'0 0.0
2016-Jul-25 09:33N 39°16' W 076°35'3 2.9
2016-Jul-25 08:33N 39°14' W 076°32'3 2.9
2016-Jul-25 07:34N 39°16' W 076°35'0 0.0
2016-Jul-25 06:33N 39°16' W 076°35'0 0.0
2016-Jul-25 05:33N 39°16' W 076°35'0 0.0
2016-Jul-25 04:33N 39°16' W 076°35'0 0.0
2016-Jul-25 03:33N 39°16' W 076°35'0 0.0
2016-Jul-25 02:33N 39°16' W 076°35'0 0.0
2016-Jul-25 01:32N 39°16' W 076°35'0 0.0
2016-Jul-25 00:27N 39°16' W 076°35'0 0.0
2016-Jul-24 23:30N 39°16' W 076°35'4 3.7
2016-Jul-24 22:27N 39°13' W 076°32'4 4.2
2016-Jul-24 21:33N 39°16' W 076°35'0 0.1
2016-Jul-24 20:20N 39°16' W 076°35'0 0.0
2016-Jul-24 19:16N 39°16' W 076°35'0 0.0
2016-Jul-24 17:15N 39°16' W 076°35'0 0.0
2016-Jul-24 16:30N 39°16' W 076°35'0 0.0
2016-Jul-24 15:30N 39°16' W 076°35'3 3.2
2016-Jul-24 14:33N 39°14' W 076°32'3 3.1
2016-Jul-24 13:33N 39°16' W 076°35'0 0.0
2016-Jul-24 12:34N 39°16' W 076°35'0 0.0
2016-Jul-24 11:33N 39°16' W 076°35'0 0.0
2016-Jul-24 10:33N 39°16' W 076°35'0 0.0
2016-Jul-24 09:33N 39°16' W 076°35'0 0.0
2016-Jul-24 08:34N 39°16' W 076°35'0 0.0
2016-Jul-24 07:33N 39°16' W 076°35'0 0.0
2016-Jul-24 06:34N 39°16' W 076°35'0 0.0
2016-Jul-24 05:34N 39°16' W 076°35'0 0.0
2016-Jul-24 04:34N 39°16' W 076°35'0 0.0
2016-Jul-24 03:34N 39°16' W 076°35'0 0.0
2016-Jul-24 02:33N 39°16' W 076°35'0 0.0
2016-Jul-24 01:34N 39°16' W 076°35'0 0.0
2016-Jul-24 00:33N 39°16' W 076°35'0 0.0
2016-Jul-23 23:31N 39°16' W 076°35'2 1.9
2016-Jul-23 22:27N 39°14' W 076°34'2 2.3
2016-Jul-23 21:33N 39°16' W 076°35'0 0.0
2016-Jul-23 20:32N 39°16' W 076°35'0 0.0
2016-Jul-23 19:33N 39°16' W 076°35'0 0.0
2016-Jul-23 18:33N 39°16' W 076°35'0 0.0
2016-Jul-23 17:33N 39°16' W 076°35'0 0.0
2016-Jul-23 16:32N 39°16' W 076°35'0 0.0
2016-Jul-23 15:29N 39°16' W 076°35'0 0.0
2016-Jul-23 14:33N 39°16' W 076°35'0 0.0
2016-Jul-23 13:32N 39°16' W 076°35'0 0.0
2016-Jul-23 12:33N 39°16' W 076°35'0 0.0
2016-Jul-23 11:33N 39°16' W 076°35'0 0.0
2016-Jul-23 10:34N 39°16' W 076°35'1 0.8
2016-Jul-23 09:33N 39°15' W 076°34'1 1.5
2016-Jul-23 08:33N 39°14' W 076°33'2 1.9
2016-Jul-23 07:34N 39°16' W 076°34'0 0.4
2016-Jul-23 06:33N 39°16' W 076°35'0 0.0
2016-Jul-23 04:34N 39°16' W 076°35'0 0.0
2016-Jul-23 03:33N 39°16' W 076°35'0 0.0
2016-Jul-23 02:34N 39°16' W 076°35'0 0.0
2016-Jul-23 01:33N 39°16' W 076°35'0 0.0
2016-Jul-23 00:34N 39°16' W 076°35'0 0.0
2016-Jul-22 23:33N 39°16' W 076°35'0 0.0
2016-Jul-22 22:34N 39°16' W 076°35'0 0.0
2016-Jul-22 21:34N 39°16' W 076°35'0 0.0
2016-Jul-22 20:34N 39°16' W 076°35'0 0.0
2016-Jul-22 19:33N 39°16' W 076°35'0 0.0
2016-Jul-22 18:34N 39°16' W 076°35'0 0.0
2016-Jul-22 17:34N 39°16' W 076°35'0 0.0
2016-Jul-22 16:34N 39°16' W 076°35'0 0.0
2016-Jul-22 15:33N 39°16' W 076°35'0 0.0
2016-Jul-22 14:33N 39°16' W 076°35'0 0.0
2016-Jul-22 13:33N 39°16' W 076°35'0 0.0
2016-Jul-22 12:30N 39°16' W 076°35'0 0.0
2016-Jul-22 11:32N 39°16' W 076°35'0 0.0
2016-Jul-22 10:30N 39°16' W 076°35'0 0.0
2016-Jul-22 09:30N 39°16' W 076°35'0 0.0
2016-Jul-22 08:32N 39°16' W 076°35'0 0.0
2016-Jul-22 07:33N 39°16' W 076°35'0 0.0
2016-Jul-22 05:33N 39°16' W 076°35'0 0.0
2016-Jul-22 04:30N 39°16' W 076°35'0 0.0
2016-Jul-22 03:33N 39°16' W 076°35'0 0.0
2016-Jul-22 02:30N 39°16' W 076°35'0 0.0
2016-Jul-22 01:25N 39°16' W 076°35'0 0.0
2016-Jul-22 00:33N 39°16' W 076°35'0 0.0
2016-Jul-21 23:30N 39°16' W 076°35'1 1.2
2016-Jul-21 22:33N 39°15' W 076°34'1 1.1
2016-Jul-21 21:30N 39°16' W 076°35'0 0.0
2016-Jul-21 20:33N 39°16' W 076°35'0 0.0
2016-Jul-21 19:33N 39°16' W 076°35'0 0.0
2016-Jul-21 18:33N 39°16' W 076°35'0 0.0
2016-Jul-21 17:31N 39°16' W 076°35'0 0.0
2016-Jul-21 16:30N 39°16' W 076°35'0 0.0
2016-Jul-21 15:34N 39°16' W 076°35'0 0.0
2016-Jul-21 14:34N 39°16' W 076°35'0 0.0
2016-Jul-21 13:33N 39°16' W 076°35'0 0.0
2016-Jul-21 12:32N 39°16' W 076°35'0 0.0
2016-Jul-21 11:30N 39°16' W 076°35'0 0.0
2016-Jul-21 10:30N 39°16' W 076°35'0 0.0
2016-Jul-21 09:30N 39°16' W 076°35'0 0.0
2016-Jul-21 08:30N 39°16' W 076°35'0 0.0
2016-Jul-21 07:30N 39°16' W 076°35'0 0.0
2016-Jul-21 06:25N 39°16' W 076°35'0 0.0
2016-Jul-21 04:30N 39°16' W 076°35'0 0.0
2016-Jul-21 03:30N 39°16' W 076°35'2 2.1
2016-Jul-21 02:33N 39°15' W 076°33'2 2.0
2016-Jul-21 01:33N 39°16' W 076°35'0 0.0
2016-Jul-21 00:30N 39°16' W 076°35'0 0.0
2016-Jul-20 23:10N 39°16' W 076°35'0 0.0
2016-Jul-20 22:30N 39°16' W 076°35'0 0.0
2016-Jul-20 21:30N 39°16' W 076°35'0 0.0
2016-Jul-20 20:32N 39°16' W 076°35'0 0.0
2016-Jul-20 19:30N 39°16' W 076°35'0 0.0
2016-Jul-20 18:29N 39°16' W 076°35'0 0.0
2016-Jul-20 17:30N 39°16' W 076°35'0 0.0
2016-Jul-20 16:33N 39°16' W 076°35'0 0.0
2016-Jul-20 15:34N 39°16' W 076°35'0 0.0
2016-Jul-20 14:33N 39°16' W 076°35'0 0.0
2016-Jul-20 13:33N 39°16' W 076°35'0 0.0
2016-Jul-20 12:33N 39°16' W 076°35'0 0.0
2016-Jul-20 11:33N 39°16' W 076°35'3 2.9
2016-Jul-20 10:33N 39°14' W 076°32'1 0.9
2016-Jul-20 09:34N 39°13' W 076°32'3 3.1
2016-Jul-20 08:30N 39°16' W 076°35'0 0.0
2016-Jul-20 07:31N 39°16' W 076°35'0 0.0
2016-Jul-20 06:34N 39°16' W 076°35'0 0.0
2016-Jul-20 05:30N 39°16' W 076°35'0 0.0
2016-Jul-20 04:15N 39°16' W 076°35'0 0.0
2016-Jul-20 03:25N 39°16' W 076°35'0 0.5
2016-Jul-20 02:33N 39°16' W 076°34'0 0.2
2016-Jul-20 01:34N 39°16' W 076°35'0 0.1
2016-Jul-19 23:20N 39°16' W 076°35'1 1.2
2016-Jul-19 22:34N 39°15' W 076°35'2 1.9
2016-Jul-19 21:34N 39°15' W 076°32'2 1.9
2016-Jul-19 20:25N 39°16' W 076°35'0 0.0
2016-Jul-19 19:29N 39°16' W 076°35'0 0.0
2016-Jul-19 18:33N 39°16' W 076°35'0 0.0
2016-Jul-19 17:18N 39°16' W 076°35'0 0.0
2016-Jul-19 16:20N 39°16' W 076°35'0 0.0
2016-Jul-19 15:30N 39°16' W 076°35'2 2.3
2016-Jul-19 14:33N 39°15' W 076°33'2 1.8
2016-Jul-19 13:33N 39°13' W 076°32'3 2.8
2016-Jul-19 12:34N 39°15' W 076°34'0 0.0
2016-Jul-19 11:33N 39°15' W 076°34'0 0.0
2016-Jul-19 10:34N 39°15' W 076°34'0 0.0
2016-Jul-19 09:34N 39°15' W 076°34'0 0.0
2016-Jul-19 08:34N 39°15' W 076°34'0 0.0
2016-Jul-19 07:34N 39°15' W 076°34'0 0.2
2016-Jul-19 04:33N 39°15' W 076°34'1 1.5
2016-Jul-19 03:33N 39°16' W 076°35'0 0.1
2016-Jul-19 02:32N 39°16' W 076°35'0 0.0
2016-Jul-19 01:33N 39°16' W 076°35'0 0.0
2016-Jul-19 00:25N 39°16' W 076°35'0 0.4
2016-Jul-18 23:33N 39°16' W 076°34'2 1.4
2016-Jul-18 22:27N 39°15' W 076°34'1 1.0
2016-Jul-18 21:25N 39°14' W 076°33'2 2.8
2016-Jul-18 20:33N 39°16' W 076°35'0 0.2
2016-Jul-18 19:31N 39°16' W 076°35'0 0.0
2016-Jul-18 18:25N 39°16' W 076°35'0 0.0
2016-Jul-18 17:33N 39°16' W 076°35'0 0.0
2016-Jul-18 16:25N 39°16' W 076°35'0 0.0
2016-Jul-18 15:30N 39°16' W 076°35'0 0.0
2016-Jul-18 14:34N 39°16' W 076°35'0 0.0
2016-Jul-18 13:32N 39°16' W 076°35'0 0.0
2016-Jul-18 12:33N 39°16' W 076°35'0 0.0
2016-Jul-18 11:30N 39°16' W 076°35'0 0.2
2016-Jul-18 10:33N 39°16' W 076°35'2 2.4
2016-Jul-18 09:34N 39°14' W 076°33'2 2.2
2016-Jul-18 08:34N 39°16' W 076°35'0 0.0
2016-Jul-18 07:33N 39°16' W 076°35'0 0.0
2016-Jul-18 06:33N 39°16' W 076°35'0 0.0
2016-Jul-18 05:34N 39°16' W 076°35'0 0.0
2016-Jul-18 04:33N 39°16' W 076°35'0 0.0
2016-Jul-18 03:34N 39°16' W 076°35'0 0.0
2016-Jul-18 02:33N 39°16' W 076°35'0 0.0
2016-Jul-18 01:34N 39°16' W 076°35'0 0.0
2016-Jul-18 00:34N 39°16' W 076°35'0 0.0
2016-Jul-17 23:30N 39°16' W 076°35'0 0.0
2016-Jul-17 22:33N 39°16' W 076°35'0 0.0
2016-Jul-17 21:30N 39°16' W 076°35'0 0.0
2016-Jul-17 20:15N 39°16' W 076°35'0 0.0
2016-Jul-17 19:30N 39°16' W 076°35'0 0.0
2016-Jul-17 18:20N 39°16' W 076°35'0 0.0
2016-Jul-17 17:15N 39°16' W 076°35'0 0.0
2016-Jul-17 16:25N 39°16' W 076°35'0 0.0
2016-Jul-17 15:30N 39°16' W 076°35'0 0.0
2016-Jul-17 14:20N 39°16' W 076°35'0 0.0
2016-Jul-17 13:30N 39°16' W 076°35'0 0.0
2016-Jul-17 12:30N 39°16' W 076°35'0 0.0
2016-Jul-17 11:30N 39°16' W 076°35'0 0.0
2016-Jul-17 10:30N 39°16' W 076°35'0 0.0
2016-Jul-17 09:30N 39°16' W 076°35'0 0.0
2016-Jul-17 08:30N 39°16' W 076°35'0 0.0
2016-Jul-17 07:30N 39°16' W 076°35'0 0.0
2016-Jul-17 06:30N 39°16' W 076°35'0 0.0
2016-Jul-17 04:20N 39°16' W 076°35'0 0.0
2016-Jul-17 03:30N 39°16' W 076°35'0 0.0
2016-Jul-17 02:33N 39°16' W 076°35'3 3.1
2016-Jul-17 01:33N 39°14' W 076°31'1 1.1
2016-Jul-17 00:30N 39°14' W 076°33'2 1.9
2016-Jul-16 23:25N 39°16' W 076°34'1 0.3
2016-Jul-16 21:20N 39°16' W 076°35'0 0.0
2016-Jul-16 20:25N 39°16' W 076°35'0 0.0
2016-Jul-16 19:10N 39°16' W 076°35'0 0.0
2016-Jul-16 18:33N 39°16' W 076°35'0 0.0
2016-Jul-16 17:30N 39°16' W 076°35'0 0.0
2016-Jul-16 16:30N 39°16' W 076°35'  
Track history (hours):
 
Tides and Currents Weather Stations Pressure Air Temp Water Temp Dewpoint Dewpoint Depression Visibility Wind Speed Wind Dir Waves Ship Positions

Kaleen Mc Allister

Owner: MC ALLISTER TOWING & TRANSPORTATION INC, NEW YORK, NY. More information available from US FCC via Universal Licensing System and Coast Guard Vessel Documentation Center.

Last reported at 2016-Jul-26 15:34 UTC. Time now 2016-Jul-26 15:59 UTC.
Position N 39°14' W 076°33'.

Length 31 m; draft 4 m.

Type: Tug. MMSI: 366891960.

Date/timePositionNaut miles runAvg speedWind from/ knotsBaromVisibWave heightAir tempDewpointWater temp
2016-Jul-26 15:34N 39°14' W 076°33'0 0.2
2016-Jul-26 14:34N 39°14' W 076°33'2 2.1
2016-Jul-26 13:33N 39°16' W 076°35'0 0.2
2016-Jul-26 12:34N 39°16' W 076°35'0 0.2
2016-Jul-26 11:33N 39°16' W 076°35'0 0.0
2016-Jul-26 10:34N 39°16' W 076°35'0 0.0
2016-Jul-26 09:34N 39°16' W 076°35'0 0.0
2016-Jul-26 08:34N 39°16' W 076°35'0 0.0
2016-Jul-26 07:34N 39°16' W 076°35'0 0.0
2016-Jul-26 06:33N 39°16' W 076°35'0 0.0
2016-Jul-26 05:33N 39°16' W 076°35'0 0.0
2016-Jul-26 04:33N 39°16' W 076°35'0 0.0
2016-Jul-26 03:33N 39°16' W 076°35'0 0.0
2016-Jul-26 02:34N 39°16' W 076°35'0 0.0
2016-Jul-26 01:33N 39°16' W 076°35'0 0.0
2016-Jul-26 00:34N 39°16' W 076°35'0 0.0
2016-Jul-25 23:34N 39°16' W 076°35'0 0.0
2016-Jul-25 22:34N 39°16' W 076°35'1 1.1
2016-Jul-25 21:33N 39°15' W 076°34'2 1.3
2016-Jul-25 20:25N 39°16' W 076°35'0 0.6
2016-Jul-25 19:33N 39°16' W 076°35'0 0.0
2016-Jul-25 18:33N 39°16' W 076°35'0 0.0
2016-Jul-25 17:34N 39°16' W 076°35'0 0.0
2016-Jul-25 16:33N 39°16' W 076°35'0 0.0
2016-Jul-25 15:33N 39°16' W 076°35'0 0.0
2016-Jul-25 14:33N 39°16' W 076°35'0 0.0
2016-Jul-25 13:34N 39°16' W 076°35'0 0.0
2016-Jul-25 12:33N 39°16' W 076°35'0 0.0
2016-Jul-25 11:34N 39°16' W 076°35'0 0.0
2016-Jul-25 10:33N 39°16' W 076°35'0 0.0
2016-Jul-25 09:33N 39°16' W 076°35'3 2.9
2016-Jul-25 08:33N 39°14' W 076°32'3 2.9
2016-Jul-25 07:34N 39°16' W 076°35'0 0.0
2016-Jul-25 06:33N 39°16' W 076°35'0 0.0
2016-Jul-25 05:33N 39°16' W 076°35'0 0.0
2016-Jul-25 04:33N 39°16' W 076°35'0 0.0
2016-Jul-25 03:33N 39°16' W 076°35'0 0.0
2016-Jul-25 02:33N 39°16' W 076°35'0 0.0
2016-Jul-25 01:32N 39°16' W 076°35'0 0.0
2016-Jul-25 00:27N 39°16' W 076°35'0 0.0
2016-Jul-24 23:30N 39°16' W 076°35'4 3.7
2016-Jul-24 22:27N 39°13' W 076°32'4 4.2
2016-Jul-24 21:33N 39°16' W 076°35'0 0.1
2016-Jul-24 20:20N 39°16' W 076°35'0 0.0
2016-Jul-24 19:16N 39°16' W 076°35'0 0.0
2016-Jul-24 17:15N 39°16' W 076°35'0 0.0
2016-Jul-24 16:30N 39°16' W 076°35'0 0.0
2016-Jul-24 15:30N 39°16' W 076°35'3 3.2
2016-Jul-24 14:33N 39°14' W 076°32'3 3.1
2016-Jul-24 13:33N 39°16' W 076°35'0 0.0
2016-Jul-24 12:34N 39°16' W 076°35'0 0.0
2016-Jul-24 11:33N 39°16' W 076°35'0 0.0
2016-Jul-24 10:33N 39°16' W 076°35'0 0.0
2016-Jul-24 09:33N 39°16' W 076°35'0 0.0
2016-Jul-24 08:34N 39°16' W 076°35'0 0.0
2016-Jul-24 07:33N 39°16' W 076°35'0 0.0
2016-Jul-24 06:34N 39°16' W 076°35'0 0.0
2016-Jul-24 05:34N 39°16' W 076°35'0 0.0
2016-Jul-24 04:34N 39°16' W 076°35'0 0.0
2016-Jul-24 03:34N 39°16' W 076°35'0 0.0
2016-Jul-24 02:33N 39°16' W 076°35'0 0.0
2016-Jul-24 01:34N 39°16' W 076°35'0 0.0
2016-Jul-24 00:33N 39°16' W 076°35'0 0.0
2016-Jul-23 23:31N 39°16' W 076°35'2 1.9
2016-Jul-23 22:27N 39°14' W 076°34'2 2.3
2016-Jul-23 21:33N 39°16' W 076°35'0 0.0
2016-Jul-23 20:32N 39°16' W 076°35'0 0.0
2016-Jul-23 19:33N 39°16' W 076°35'0 0.0
2016-Jul-23 18:33N 39°16' W 076°35'0 0.0
2016-Jul-23 17:33N 39°16' W 076°35'0 0.0
2016-Jul-23 16:32N 39°16' W 076°35'0 0.0
2016-Jul-23 15:29N 39°16' W 076°35'0 0.0
2016-Jul-23 14:33N 39°16' W 076°35'0 0.0
2016-Jul-23 13:32N 39°16' W 076°35'0 0.0
2016-Jul-23 12:33N 39°16' W 076°35'0 0.0
2016-Jul-23 11:33N 39°16' W 076°35'0 0.0
2016-Jul-23 10:34N 39°16' W 076°35'1 0.8
2016-Jul-23 09:33N 39°15' W 076°34'1 1.5
2016-Jul-23 08:33N 39°14' W 076°33'2 1.9
2016-Jul-23 07:34N 39°16' W 076°34'0 0.4
2016-Jul-23 06:33N 39°16' W 076°35'0 0.0
2016-Jul-23 04:34N 39°16' W 076°35'0 0.0
2016-Jul-23 03:33N 39°16' W 076°35'0 0.0
2016-Jul-23 02:34N 39°16' W 076°35'0 0.0
2016-Jul-23 01:33N 39°16' W 076°35'0 0.0
2016-Jul-23 00:34N 39°16' W 076°35'0 0.0
2016-Jul-22 23:33N 39°16' W 076°35'0 0.0
2016-Jul-22 22:34N 39°16' W 076°35'0 0.0
2016-Jul-22 21:34N 39°16' W 076°35'0 0.0
2016-Jul-22 20:34N 39°16' W 076°35'0 0.0
2016-Jul-22 19:33N 39°16' W 076°35'0 0.0
2016-Jul-22 18:34N 39°16' W 076°35'0 0.0
2016-Jul-22 17:34N 39°16' W 076°35'0 0.0
2016-Jul-22 16:34N 39°16' W 076°35'0 0.0
2016-Jul-22 15:33N 39°16' W 076°35'0 0.0
2016-Jul-22 14:33N 39°16' W 076°35'0 0.0
2016-Jul-22 13:33N 39°16' W 076°35'0 0.0
2016-Jul-22 12:30N 39°16' W 076°35'0 0.0
2016-Jul-22 11:32N 39°16' W 076°35'0 0.0
2016-Jul-22 10:30N 39°16' W 076°35'0 0.0
2016-Jul-22 09:30N 39°16' W 076°35'0 0.0
2016-Jul-22 08:32N 39°16' W 076°35'0 0.0
2016-Jul-22 07:33N 39°16' W 076°35'0 0.0
2016-Jul-22 05:33N 39°16' W 076°35'0 0.0
2016-Jul-22 04:30N 39°16' W 076°35'0 0.0
2016-Jul-22 03:33N 39°16' W 076°35'0 0.0
2016-Jul-22 02:30N 39°16' W 076°35'0 0.0
2016-Jul-22 01:25N 39°16' W 076°35'0 0.0
2016-Jul-22 00:33N 39°16' W 076°35'0 0.0
2016-Jul-21 23:30N 39°16' W 076°35'1 1.2
2016-Jul-21 22:33N 39°15' W 076°34'1 1.1
2016-Jul-21 21:30N 39°16' W 076°35'0 0.0
2016-Jul-21 20:33N 39°16' W 076°35'0 0.0
2016-Jul-21 19:33N 39°16' W 076°35'0 0.0
2016-Jul-21 18:33N 39°16' W 076°35'0 0.0
2016-Jul-21 17:31N 39°16' W 076°35'0 0.0
2016-Jul-21 16:30N 39°16' W 076°35'0 0.0
2016-Jul-21 15:34N 39°16' W 076°35'0 0.0
2016-Jul-21 14:34N 39°16' W 076°35'0 0.0
2016-Jul-21 13:33N 39°16' W 076°35'0 0.0
2016-Jul-21 12:32N 39°16' W 076°35'0 0.0
2016-Jul-21 11:30N 39°16' W 076°35'0 0.0
2016-Jul-21 10:30N 39°16' W 076°35'0 0.0
2016-Jul-21 09:30N 39°16' W 076°35'0 0.0
2016-Jul-21 08:30N 39°16' W 076°35'0 0.0
2016-Jul-21 07:30N 39°16' W 076°35'0 0.0
2016-Jul-21 06:25N 39°16' W 076°35'0 0.0
2016-Jul-21 04:30N 39°16' W 076°35'0 0.0
2016-Jul-21 03:30N 39°16' W 076°35'2 2.1
2016-Jul-21 02:33N 39°15' W 076°33'2 2.0
2016-Jul-21 01:33N 39°16' W 076°35'0 0.0
2016-Jul-21 00:30N 39°16' W 076°35'0 0.0
2016-Jul-20 23:10N 39°16' W 076°35'0 0.0
2016-Jul-20 22:30N 39°16' W 076°35'0 0.0
2016-Jul-20 21:30N 39°16' W 076°35'0 0.0
2016-Jul-20 20:32N 39°16' W 076°35'0 0.0
2016-Jul-20 19:30N 39°16' W 076°35'0 0.0
2016-Jul-20 18:29N 39°16' W 076°35'0 0.0
2016-Jul-20 17:30N 39°16' W 076°35'0 0.0
2016-Jul-20 16:33N 39°16' W 076°35'0 0.0
2016-Jul-20 15:34N 39°16' W 076°35'0 0.0
2016-Jul-20 14:33N 39°16' W 076°35'0 0.0
2016-Jul-20 13:33N 39°16' W 076°35'0 0.0
2016-Jul-20 12:33N 39°16' W 076°35'0 0.0
2016-Jul-20 11:33N 39°16' W 076°35'3 2.9
2016-Jul-20 10:33N 39°14' W 076°32'1 0.9
2016-Jul-20 09:34N 39°13' W 076°32'3 3.1
2016-Jul-20 08:30N 39°16' W 076°35'0 0.0
2016-Jul-20 07:31N 39°16' W 076°35'0 0.0
2016-Jul-20 06:34N 39°16' W 076°35'0 0.0
2016-Jul-20 05:30N 39°16' W 076°35'0 0.0
2016-Jul-20 04:15N 39°16' W 076°35'0 0.0
2016-Jul-20 03:25N 39°16' W 076°35'0 0.5
2016-Jul-20 02:33N 39°16' W 076°34'0 0.2
2016-Jul-20 01:34N 39°16' W 076°35'0 0.1
2016-Jul-19 23:20N 39°16' W 076°35'1 1.2
2016-Jul-19 22:34N 39°15' W 076°35'2 1.9
2016-Jul-19 21:34N 39°15' W 076°32'2 1.9
2016-Jul-19 20:25N 39°16' W 076°35'0 0.0
2016-Jul-19 19:29N 39°16' W 076°35'0 0.0
2016-Jul-19 18:33N 39°16' W 076°35'0 0.0
2016-Jul-19 17:18N 39°16' W 076°35'0 0.0
2016-Jul-19 16:20N 39°16' W 076°35'0 0.0
2016-Jul-19 15:30N 39°16' W 076°35'2 2.3
2016-Jul-19 14:33N 39°15' W 076°33'2 1.8
2016-Jul-19 13:33N 39°13' W 076°32'3 2.8
2016-Jul-19 12:34N 39°15' W 076°34'0 0.0
2016-Jul-19 11:33N 39°15' W 076°34'0 0.0
2016-Jul-19 10:34N 39°15' W 076°34'0 0.0
2016-Jul-19 09:34N 39°15' W 076°34'0 0.0
2016-Jul-19 08:34N 39°15' W 076°34'0 0.0
2016-Jul-19 07:34N 39°15' W 076°34'0 0.2
2016-Jul-19 04:33N 39°15' W 076°34'1 1.5
2016-Jul-19 03:33N 39°16' W 076°35'0 0.1
2016-Jul-19 02:32N 39°16' W 076°35'0 0.0
2016-Jul-19 01:33N 39°16' W 076°35'0 0.0
2016-Jul-19 00:25N 39°16' W 076°35'0 0.4
2016-Jul-18 23:33N 39°16' W 076°34'2 1.4
2016-Jul-18 22:27N 39°15' W 076°34'1 1.0
2016-Jul-18 21:25N 39°14' W 076°33'2 2.8
2016-Jul-18 20:33N 39°16' W 076°35'0 0.2
2016-Jul-18 19:31N 39°16' W 076°35'0 0.0
2016-Jul-18 18:25N 39°16' W 076°35'0 0.0
2016-Jul-18 17:33N 39°16' W 076°35'0 0.0
2016-Jul-18 16:25N 39°16' W 076°35'0 0.0
2016-Jul-18 15:30N 39°16' W 076°35'0 0.0
2016-Jul-18 14:34N 39°16' W 076°35'0 0.0
2016-Jul-18 13:32N 39°16' W 076°35'0 0.0
2016-Jul-18 12:33N 39°16' W 076°35'0 0.0
2016-Jul-18 11:30N 39°16' W 076°35'0 0.2
2016-Jul-18 10:33N 39°16' W 076°35'2 2.4
2016-Jul-18 09:34N 39°14' W 076°33'2 2.2
2016-Jul-18 08:34N 39°16' W 076°35'0 0.0
2016-Jul-18 07:33N 39°16' W 076°35'0 0.0
2016-Jul-18 06:33N 39°16' W 076°35'0 0.0
2016-Jul-18 05:34N 39°16' W 076°35'0 0.0
2016-Jul-18 04:33N 39°16' W 076°35'0 0.0
2016-Jul-18 03:34N 39°16' W 076°35'0 0.0
2016-Jul-18 02:33N 39°16' W 076°35'0 0.0
2016-Jul-18 01:34N 39°16' W 076°35'0 0.0
2016-Jul-18 00:34N 39°16' W 076°35'0 0.0
2016-Jul-17 23:30N 39°16' W 076°35'0 0.0
2016-Jul-17 22:33N 39°16' W 076°35'0 0.0
2016-Jul-17 21:30N 39°16' W 076°35'0 0.0
2016-Jul-17 20:15N 39°16' W 076°35'0 0.0
2016-Jul-17 19:30N 39°16' W 076°35'0 0.0
2016-Jul-17 18:20N 39°16' W 076°35'0 0.0
2016-Jul-17 17:15N 39°16' W 076°35'0 0.0
2016-Jul-17 16:25N 39°16' W 076°35'0 0.0
2016-Jul-17 15:30N 39°16' W 076°35'0 0.0
2016-Jul-17 14:20N 39°16' W 076°35'0 0.0
2016-Jul-17 13:30N 39°16' W 076°35'0 0.0
2016-Jul-17 12:30N 39°16' W 076°35'0 0.0
2016-Jul-17 11:30N 39°16' W 076°35'0 0.0
2016-Jul-17 10:30N 39°16' W 076°35'0 0.0
2016-Jul-17 09:30N 39°16' W 076°35'0 0.0
2016-Jul-17 08:30N 39°16' W 076°35'0 0.0
2016-Jul-17 07:30N 39°16' W 076°35'0 0.0
2016-Jul-17 06:30N 39°16' W 076°35'0 0.0
2016-Jul-17 04:20N 39°16' W 076°35'0 0.0
2016-Jul-17 03:30N 39°16' W 076°35'0 0.0
2016-Jul-17 02:33N 39°16' W 076°35'3 3.1
2016-Jul-17 01:33N 39°14' W 076°31'1 1.1
2016-Jul-17 00:30N 39°14' W 076°33'2 1.9
2016-Jul-16 23:25N 39°16' W 076°34'1 0.3
2016-Jul-16 21:20N 39°16' W 076°35'0 0.0
2016-Jul-16 20:25N 39°16' W 076°35'0 0.0
2016-Jul-16 19:10N 39°16' W 076°35'0 0.0
2016-Jul-16 18:33N 39°16' W 076°35'0 0.0
2016-Jul-16 17:30N 39°16' W 076°35'0 0.0
2016-Jul-16 16:30N 39°16' W 076°35'  

Dump ship's entire track history